This is the latest recevied weather packets stored in our database for station/object K5UBE. If no packets are shown the sender has not sent any weather packets the latest 10 day(s).
| Time | Temp. | Humidity | Pressure | Rain* | Wind** | Luminosity | Snow |
|---|---|---|---|---|---|---|---|
| 1778187610 | 22.78° C | 26% | 1018.5 hPa | 0 mm | - | - | - |
| 1778187307 | 22.78° C | 27% | 1018.3 hPa | 0 mm | - | - | - |
| 1778187003 | 23.33° C | 26% | 1018.7 hPa | 0 mm | - | - | - |
| 1778186699 | 23.33° C | 26% | 1019 hPa | 0 mm | - | - | - |
| 1778186397 | 23.33° C | 26% | 1018.8 hPa | 0 mm | - | - | - |
| 1778186095 | 21.67° C | 28% | 1019.1 hPa | 0 mm | - | - | - |
| 1778185791 | 22.22° C | 28% | 1018.9 hPa | 0 mm | - | - | - |
| 1778185487 | 22.22° C | 28% | 1019.2 hPa | 0 mm | - | - | - |
| 1778185183 | 22.22° C | 28% | 1019.2 hPa | 0 mm | - | - | - |
| 1778184878 | 21.67° C | 29% | 1019.3 hPa | 0 mm | - | - | - |
| 1778184576 | 20.56° C | 33% | 1019.3 hPa | 0 mm | - | - | - |
| 1778184271 | 21.11° C | 31% | 1019.4 hPa | 0 mm | - | - | - |
| 1778183967 | 21.11° C | 30% | 1019.8 hPa | 0 mm | - | - | - |
| 1778183665 | 21.11° C | 31% | 1019.7 hPa | 0 mm | - | - | - |
| 1778183362 | 21.67° C | 31% | 1019.8 hPa | 0 mm | - | - | - |
| 1778183058 | 21.67° C | 32% | 1020 hPa | 0 mm | - | - | - |
| 1778182755 | 20.56° C | 32% | 1020.2 hPa | 0 mm | - | - | - |
| 1778182452 | 20.56° C | 33% | 1020 hPa | 0 mm | - | - | - |
| 1778182148 | 20.56° C | 34% | 1020.4 hPa | 0 mm | - | - | - |
| 1778181844 | 20° C | 35% | 1020.6 hPa | 0 mm | - | - | - |
| 1778181541 | 20.56° C | 35% | 1020.6 hPa | 0 mm | - | - | - |
| 1778181237 | 20° C | 37% | 1020.6 hPa | 0 mm | - | - | - |
| 1778180934 | 20.56° C | 34% | 1020.9 hPa | 0 mm | - | - | - |
| 1778180632 | 19.44° C | 37% | 1020.9 hPa | 0 mm | - | - | - |
| 1778180331 | 19.44° C | 37% | 1021 hPa | 0 mm | - | - | - |
* Rain latest hour (hover to see other rain measurements)
** Current wind speed in m/s (hover to see current wind gust speed)